Time,TemperatureF,DewpointF,PressureIn,WindDirection,WindDirectionDegrees,WindSpeedMPH,WindSpeedGustMPH,Humidity,HourlyPrecipIn,Conditions,Clouds,dailyrainin,SoftwareType,DateUTC
2013-05-12 00:02:00,68.3,65.6,30.11,NNE,12,19.0,29.0,91,-0.22,,,0.00,Weather View 32 v70,2013-05-12 10:02:00,
2013-05-12 00:07:00,68.3,65.6,30.11,NNW,333,21.0,29.0,91,-0.22,,,0.00,Weather View 32 v70,2013-05-12 10:07:00,
2013-05-12 00:12:00,68.3,65.6,30.11,NNW,341,22.0,29.0,91,-0.22,,,0.00,Weather View 32 v70,2013-05-12 10:12:00,
2013-05-12 00:17:00,68.4,65.7,30.11,North,355,25.0,29.0,91,-0.22,,,0.00,Weather View 32 v70,2013-05-12 10:17:00,
2013-05-12 00:22:00,68.6,65.9,30.11,North,359,21.0,29.0,91,-0.22,,,0.00,Weather View 32 v70,2013-05-12 10:22:00,
2013-05-12 00:27:00,68.6,65.9,30.11,North,2,17.0,29.0,91,-0.22,,,0.00,Weather View 32 v70,2013-05-12 10:27:00,
2013-05-12 00:32:00,68.6,65.9,30.10,NNW,344,14.0,29.0,91,-0.22,,,0.00,Weather View 32 v70,2013-05-12 10:32:00,
2013-05-12 00:37:00,68.6,65.5,30.11,NNE,12,11.0,29.0,90,-0.22,,,0.00,Weather View 32 v70,2013-05-12 10:37:00,
2013-05-12 00:43:00,68.7,66.0,30.10,NW,316,18.0,29.0,91,-0.22,,,0.00,Weather View 32 v70,2013-05-12 10:43:00,
2013-05-12 00:48:00,68.8,65.7,30.10,North,3,15.0,29.0,90,-0.22,,,0.00,Weather View 32 v70,2013-05-12 10:48:00,
2013-05-12 00:53:00,68.8,66.1,30.09,North,351,17.0,29.0,91,-0.22,,,0.00,Weather View 32 v70,2013-05-12 10:53:00,
2013-05-12 00:58:00,68.7,66.0,30.10,North,353,16.0,29.0,91,-0.22,,,0.00,Weather View 32 v70,2013-05-12 10:58:00,
2013-05-12 01:03:00,68.6,65.9,30.10,NE,35,19.0,29.0,91,0.00,,,0.00,Weather View 32 v70,2013-05-12 11:03:00,
2013-05-12 01:08:00,68.6,66.2,30.10,NNW,340,17.0,29.0,92,0.00,,,0.00,Weather View 32 v70,2013-05-12 11:08:00,
2013-05-12 01:13:00,68.6,66.2,30.09,NNW,332,15.0,29.0,92,0.00,,,0.00,Weather View 32 v70,2013-05-12 11:13:00,
2013-05-12 01:18:00,68.6,66.2,30.09,North,352,20.0,29.0,92,0.00,,,0.00,Weather View 32 v70,2013-05-12 11:18:00,
2013-05-12 01:23:00,68.5,66.1,30.09,NNW,336,19.0,29.0,92,0.00,,,0.00,Weather View 32 v70,2013-05-12 11:23:00,
2013-05-12 01:28:00,68.4,66.3,30.09,NNE,12,15.0,29.0,93,0.00,,,0.00,Weather View 32 v70,2013-05-12 11:28:00,
2013-05-12 01:33:00,68.3,66.2,30.09,North,10,14.0,29.0,93,0.00,,,0.00,Weather View 32 v70,2013-05-12 11:33:00,
2013-05-12 01:38:00,68.2,66.4,30.08,North,359,20.0,30.0,94,0.00,,,0.00,Weather View 32 v70,2013-05-12 11:38:00,
2013-05-12 01:43:00,68.1,66.3,30.08,North,356,16.0,30.0,94,0.00,,,0.00,Weather View 32 v70,2013-05-12 11:43:00,
2013-05-12 01:48:00,67.9,66.1,30.09,NNW,344,13.0,30.0,94,0.00,,,0.00,Weather View 32 v70,2013-05-12 11:48:00,
2013-05-12 01:53:00,67.9,66.1,30.09,NNW,340,15.0,30.0,94,0.00,,,0.00,Weather View 32 v70,2013-05-12 11:53:00,
2013-05-12 01:58:00,67.7,65.9,30.08,NNW,337,23.0,30.0,94,0.00,,,0.00,Weather View 32 v70,2013-05-12 11:58:00,
2013-05-12 02:03:00,67.7,65.9,30.08,North,358,20.0,30.0,94,0.00,,,0.00,Weather View 32 v70,2013-05-12 12:03:00,
2013-05-12 02:08:00,67.8,66.0,30.07,NNW,340,18.0,30.0,94,0.00,,,0.00,Weather View 32 v70,2013-05-12 12:08:00,
2013-05-12 02:13:00,68.1,66.0,30.07,NNW,343,20.0,30.0,93,0.00,,,0.00,Weather View 32 v70,2013-05-12 12:13:00,
2013-05-12 02:18:00,68.3,66.2,30.07,NNW,346,22.0,30.0,93,0.00,,,0.00,Weather View 32 v70,2013-05-12 12:18:00,
2013-05-12 02:23:00,68.5,66.1,30.08,NNW,343,12.0,30.0,92,0.00,,,0.00,Weather View 32 v70,2013-05-12 12:23:00,
2013-05-12 02:28:00,68.4,66.0,30.07,NNW,343,23.0,30.0,92,0.00,,,0.00,Weather View 32 v70,2013-05-12 12:28:00,
2013-05-12 02:33:00,68.3,65.9,30.06,North,353,21.0,30.0,92,0.00,,,0.00,Weather View 32 v70,2013-05-12 12:33:00,
2013-05-12 02:38:00,68.5,66.1,30.07,NNE,13,19.0,30.0,92,0.00,,,0.00,Weather View 32 v70,2013-05-12 12:38:00,
2013-05-12 02:43:00,68.6,65.9,30.06,NNW,339,22.0,30.0,91,0.00,,,0.00,Weather View 32 v70,2013-05-12 12:43:00,
2013-05-12 02:48:00,68.8,65.7,30.06,East,80,21.0,30.0,90,0.00,,,0.00,Weather View 32 v70,2013-05-12 12:48:00,
2013-05-12 02:53:00,68.8,65.7,30.06,NNW,342,21.0,30.0,90,0.00,,,0.00,Weather View 32 v70,2013-05-12 12:53:00,
2013-05-12 02:58:00,68.9,65.8,30.07,North,1,13.0,30.0,90,0.00,,,0.00,Weather View 32 v70,2013-05-12 12:58:00,
2013-05-12 03:03:00,68.9,65.5,30.07,NNW,337,15.0,30.0,89,0.00,,,0.00,Weather View 32 v70,2013-05-12 13:03:00,
2013-05-12 03:08:00,69.1,65.7,30.06,North,351,19.0,30.0,89,0.00,,,0.00,Weather View 32 v70,2013-05-12 13:08:00,
2013-05-12 03:13:00,69.0,65.6,30.05,North,351,17.0,30.0,89,0.00,,,0.00,Weather View 32 v70,2013-05-12 13:13:00,
2013-05-12 03:18:00,69.0,65.9,30.07,North,2,13.0,30.0,90,0.00,,,0.00,Weather View 32 v70,2013-05-12 13:18:00,
2013-05-12 03:23:00,69.0,65.9,30.05,NNW,348,19.0,29.0,90,0.00,,,0.00,Weather View 32 v70,2013-05-12 13:23:00,
2013-05-12 03:28:00,69.0,65.9,30.05,North,10,19.0,31.0,90,0.00,,,0.00,Weather View 32 v70,2013-05-12 13:28:00,
2013-05-12 03:33:00,68.8,66.1,30.06,North,353,17.0,31.0,91,0.00,,,0.00,Weather View 32 v70,2013-05-12 13:33:00,
2013-05-12 03:38:00,68.5,66.1,30.05,North,6,22.0,31.0,92,0.00,,,0.00,Weather View 32 v70,2013-05-12 13:38:00,
2013-05-12 03:44:00,68.3,65.9,30.05,NNW,336,23.0,31.0,92,0.00,,,0.00,Weather View 32 v70,2013-05-12 13:44:00,
2013-05-12 03:49:00,68.5,65.8,30.05,NNW,329,29.0,36.0,91,0.00,,,0.00,Weather View 32 v70,2013-05-12 13:49:00,
2013-05-12 03:54:00,68.5,65.8,30.05,North,354,23.0,36.0,91,0.00,,,0.00,Weather View 32 v70,2013-05-12 13:54:00,
2013-05-12 03:59:00,68.6,65.5,30.05,North,355,25.0,36.0,90,0.00,,,0.00,Weather View 32 v70,2013-05-12 13:59:00,
2013-05-12 04:04:00,68.5,65.8,30.05,NW,324,30.0,36.0,91,0.00,,,0.00,Weather View 32 v70,2013-05-12 14:04:00,
2013-05-12 04:09:00,68.1,66.0,30.05,NNW,335,21.0,36.0,93,0.00,,,0.00,Weather View 32 v70,2013-05-12 14:09:00,
2013-05-12 04:14:00,68.0,66.2,30.06,NNW,338,22.0,36.0,94,0.00,,,0.00,Weather View 32 v70,2013-05-12 14:14:00,
2013-05-12 04:19:00,67.9,66.1,30.06,North,2,22.0,36.0,94,0.00,,,0.00,Weather View 32 v70,2013-05-12 14:19:00,
2013-05-12 04:24:00,67.9,66.1,30.07,NNE,24,15.0,36.0,94,0.00,,,0.00,Weather View 32 v70,2013-05-12 14:24:00,
2013-05-12 04:29:00,68.0,66.2,30.06,NNE,17,17.0,36.0,94,0.00,,,0.00,Weather View 32 v70,2013-05-12 14:29:00,
2013-05-12 04:34:00,68.0,66.5,30.06,NNW,348,26.0,36.0,95,0.00,,,0.00,Weather View 32 v70,2013-05-12 14:34:00,
2013-05-12 04:39:00,67.9,66.4,30.06,North,358,19.0,36.0,95,0.00,,,0.00,Weather View 32 v70,2013-05-12 14:39:00,
2013-05-12 04:44:00,68.0,66.5,30.06,North,349,23.0,36.0,95,0.00,,,0.00,Weather View 32 v70,2013-05-12 14:44:00,
2013-05-12 04:49:00,67.9,66.4,30.06,NNE,23,14.0,36.0,95,0.00,,,0.00,Weather View 32 v70,2013-05-12 14:49:00,
2013-05-12 04:54:00,67.9,66.4,30.06,North,359,24.0,36.0,95,0.00,,,0.00,Weather View 32 v70,2013-05-12 14:54:00,
2013-05-12 04:59:00,67.8,66.3,30.07,North,10,16.0,36.0,95,0.00,,,0.00,Weather View 32 v70,2013-05-12 14:59:00,
2013-05-12 05:04:00,67.8,66.3,30.07,NNW,345,19.0,35.0,95,0.00,,,0.00,Weather View 32 v70,2013-05-12 15:04:00,
2013-05-12 05:09:00,67.9,66.4,30.07,NNW,347,19.0,32.0,95,0.00,,,0.00,Weather View 32 v70,2013-05-12 15:09:00,
2013-05-12 05:14:00,67.9,66.4,30.06,North,358,24.0,32.0,95,0.00,,,0.00,Weather View 32 v70,2013-05-12 15:14:00,
2013-05-12 05:19:00,67.7,66.2,30.06,NE,34,20.0,33.0,95,0.00,,,0.00,Weather View 32 v70,2013-05-12 15:19:00,
2013-05-12 05:24:00,67.9,66.4,30.06,NNW,344,24.0,33.0,95,0.00,,,0.00,Weather View 32 v70,2013-05-12 15:24:00,
2013-05-12 05:29:00,67.8,66.6,30.06,North,5,22.0,33.0,96,0.00,,,0.00,Weather View 32 v70,2013-05-12 15:29:00,
2013-05-12 05:34:00,67.6,66.4,30.07,NNW,347,16.0,33.0,96,0.00,,,0.00,Weather View 32 v70,2013-05-12 15:34:00,
2013-05-12 05:39:00,67.6,66.4,30.07,NNW,337,24.0,33.0,96,0.00,,,0.00,Weather View 32 v70,2013-05-12 15:39:00,
2013-05-12 05:44:00,67.7,66.5,30.08,NNW,345,15.0,33.0,96,0.00,,,0.00,Weather View 32 v70,2013-05-12 15:44:00,
2013-05-12 05:49:00,67.9,66.7,30.08,North,353,22.0,33.0,96,0.00,,,0.00,Weather View 32 v70,2013-05-12 15:49:00,
2013-05-12 05:54:00,67.9,66.7,30.08,North,351,18.0,33.0,96,0.00,,,0.00,Weather View 32 v70,2013-05-12 15:54:00,
2013-05-12 05:59:00,67.7,66.5,30.08,North,4,22.0,33.0,96,0.00,,,0.00,Weather View 32 v70,2013-05-12 15:59:00,
2013-05-12 06:04:00,67.6,66.4,30.08,North,3,20.0,33.0,96,0.00,,,0.00,Weather View 32 v70,2013-05-12 16:04:00,
2013-05-12 06:09:00,67.5,66.3,30.08,North,4,20.0,33.0,96,0.00,,,0.00,Weather View 32 v70,2013-05-12 16:09:00,
2013-05-12 06:14:00,67.6,66.4,30.08,NNW,348,19.0,33.0,96,0.00,,,0.00,Weather View 32 v70,2013-05-12 16:14:00,
2013-05-12 06:19:00,67.6,66.4,30.08,NNE,15,23.0,31.0,96,0.00,,,0.00,Weather View 32 v70,2013-05-12 16:19:00,
2013-05-12 06:24:00,67.7,66.5,30.08,North,1,17.0,31.0,96,0.00,,,0.00,Weather View 32 v70,2013-05-12 16:24:00,
2013-05-12 06:29:00,67.7,66.5,30.09,North,6,18.0,31.0,96,0.00,,,0.00,Weather View 32 v70,2013-05-12 16:29:00,
2013-05-12 06:34:00,67.8,66.6,30.08,North,358,24.0,30.0,96,0.00,,,0.00,Weather View 32 v70,2013-05-12 16:34:00,
2013-05-12 06:39:00,67.6,66.4,30.09,North,1,23.0,29.0,96,0.00,,,0.00,Weather View 32 v70,2013-05-12 16:39:00,
2013-05-12 06:45:00,67.6,66.4,30.09,NNW,345,14.0,29.0,96,0.00,,,0.00,Weather View 32 v70,2013-05-12 16:45:00,
2013-05-12 06:50:00,67.4,66.2,30.09,North,351,30.0,31.0,96,0.00,,,0.00,Weather View 32 v70,2013-05-12 16:50:00,
2013-05-12 06:55:00,67.5,66.3,30.10,North,4,30.0,34.0,96,0.00,,,0.00,Weather View 32 v70,2013-05-12 16:55:00,
2013-05-12 07:00:00,67.5,66.3,30.09,North,355,27.0,34.0,96,0.00,,,0.00,Weather View 32 v70,2013-05-12 17:00:00,
2013-05-12 07:05:00,67.3,66.1,30.10,North,11,22.0,34.0,96,0.00,,,0.00,Weather View 32 v70,2013-05-12 17:05:00,
2013-05-12 07:10:00,67.4,66.2,30.11,NNE,26,15.0,34.0,96,0.00,,,0.00,Weather View 32 v70,2013-05-12 17:10:00,
2013-05-12 07:15:00,67.2,66.0,30.11,NNE,16,18.0,34.0,96,0.00,,,0.00,Weather View 32 v70,2013-05-12 17:15:00,
2013-05-12 07:20:00,67.1,65.9,30.10,North,11,20.0,34.0,96,0.00,,,0.00,Weather View 32 v70,2013-05-12 17:20:00,
2013-05-12 07:25:00,67.2,66.3,30.11,NNW,338,18.0,34.0,97,0.00,,,0.00,Weather View 32 v70,2013-05-12 17:25:00,
2013-05-12 07:30:00,67.3,66.4,30.11,NNE,12,22.0,34.0,97,0.00,,,0.00,Weather View 32 v70,2013-05-12 17:30:00,
2013-05-12 07:35:00,67.2,66.3,30.12,North,8,18.0,34.0,97,0.00,,,0.00,Weather View 32 v70,2013-05-12 17:35:00,
2013-05-12 07:40:00,67.1,66.2,30.11,NNW,343,18.0,34.0,97,0.00,,,0.00,Weather View 32 v70,2013-05-12 17:40:00,
2013-05-12 07:45:00,67.1,66.2,30.12,North,353,19.0,34.0,97,0.00,,,0.00,Weather View 32 v70,2013-05-12 17:45:00,
2013-05-12 07:50:00,67.0,65.8,30.12,NNW,346,16.0,34.0,96,0.00,,,0.00,Weather View 32 v70,2013-05-12 17:50:00,
2013-05-12 07:55:00,67.0,65.8,30.12,NNE,23,17.0,31.0,96,0.00,,,0.00,Weather View 32 v70,2013-05-12 17:55:00,
2013-05-12 08:00:00,67.0,66.1,30.12,North,357,22.0,31.0,97,0.01,,,0.01,Weather View 32 v70,2013-05-12 18:00:00,
2013-05-12 08:05:00,67.1,66.2,30.12,NNE,20,19.0,31.0,97,0.01,,,0.01,Weather View 32 v70,2013-05-12 18:05:00,
2013-05-12 08:10:00,67.2,66.3,30.12,North,352,16.0,31.0,97,0.01,,,0.01,Weather View 32 v70,2013-05-12 18:10:00,
2013-05-12 08:15:00,67.3,66.4,30.12,North,6,22.0,31.0,97,0.01,,,0.01,Weather View 32 v70,2013-05-12 18:15:00,
2013-05-12 08:20:00,67.4,66.5,30.12,North,9,18.0,30.0,97,0.01,,,0.01,Weather View 32 v70,2013-05-12 18:20:00,
2013-05-12 08:25:00,67.3,66.4,30.12,NNE,29,25.0,30.0,97,0.01,,,0.01,Weather View 32 v70,2013-05-12 18:25:00,
2013-05-12 08:30:00,67.0,66.1,30.12,NNE,12,23.0,32.0,97,0.01,,,0.01,Weather View 32 v70,2013-05-12 18:30:00,
2013-05-12 08:35:00,67.0,65.8,30.12,North,349,25.0,34.0,96,0.01,,,0.01,Weather View 32 v70,2013-05-12 18:35:00,
2013-05-12 08:40:00,67.0,65.8,30.13,North,351,20.0,34.0,96,0.01,,,0.01,Weather View 32 v70,2013-05-12 18:40:00,
2013-05-12 08:45:00,67.2,66.3,30.13,NNW,339,21.0,34.0,97,0.01,,,0.01,Weather View 32 v70,2013-05-12 18:45:00,
2013-05-12 08:50:00,67.1,66.2,30.13,North,357,16.0,34.0,97,0.01,,,0.01,Weather View 32 v70,2013-05-12 18:50:00,
2013-05-12 08:55:00,67.1,66.2,30.13,NNE,13,18.0,34.0,97,0.01,,,0.01,Weather View 32 v70,2013-05-12 18:55:00,
2013-05-12 09:03:00,67.3,66.4,30.13,North,350,25.0,34.0,97,0.00,,,0.01,Weather View 32 v70,2013-05-12 19:03:00,
2013-05-12 09:05:00,67.2,66.3,30.13,North,2,19.0,34.0,97,0.00,,,0.01,Weather View 32 v70,2013-05-12 19:05:00,
2013-05-12 09:09:00,67.2,66.3,30.13,North,1,22.0,34.0,97,0.00,,,0.01,Weather View 32 v70,2013-05-12 19:09:00,
2013-05-12 09:14:00,67.3,66.4,30.13,NNW,348,24.0,34.0,97,0.00,,,0.01,Weather View 32 v70,2013-05-12 19:14:00,
2013-05-12 09:20:00,67.2,66.0,30.14,North,351,25.0,34.0,96,0.00,,,0.01,Weather View 32 v70,2013-05-12 19:20:00,
2013-05-12 09:26:00,67.2,66.0,30.13,NNW,342,16.0,34.0,96,0.00,,,0.01,Weather View 32 v70,2013-05-12 19:26:00,
2013-05-12 09:31:00,67.5,66.3,30.13,NNW,341,21.0,34.0,96,0.01,,,0.02,Weather View 32 v70,2013-05-12 19:31:00,
2013-05-12 09:35:00,67.6,66.4,30.13,NNE,16,17.0,33.0,96,0.01,,,0.02,Weather View 32 v70,2013-05-12 19:35:00,
2013-05-12 09:37:00,67.5,66.3,30.12,North,1,20.0,33.0,96,0.01,,,0.02,Weather View 32 v70,2013-05-12 19:37:00,
2013-05-12 09:42:00,67.4,66.2,30.13,NNE,28,19.0,33.0,96,0.01,,,0.02,Weather View 32 v70,2013-05-12 19:42:00,
2013-05-12 09:48:00,67.4,66.2,30.13,NNW,342,15.0,33.0,96,0.01,,,0.02,Weather View 32 v70,2013-05-12 19:48:00,
2013-05-12 09:54:00,67.3,66.1,30.11,NE,36,23.0,33.0,96,0.01,,,0.02,Weather View 32 v70,2013-05-12 19:54:00,
2013-05-12 09:55:00,67.3,66.1,30.11,North,359,24.0,33.0,96,0.01,,,0.02,Weather View 32 v70,2013-05-12 19:55:00,
2013-05-12 09:59:00,67.5,66.3,30.12,North,359,26.0,33.0,96,0.01,,,0.02,Weather View 32 v70,2013-05-12 19:59:00,
2013-05-12 10:00:00,67.5,66.3,30.12,North,11,23.0,33.0,96,0.01,,,0.02,Weather View 32 v70,2013-05-12 20:00:00,
2013-05-12 10:04:00,67.5,66.3,30.13,NNW,329,18.0,32.0,96,0.01,,,0.02,Weather View 32 v70,2013-05-12 20:04:00,
2013-05-12 10:05:00,67.5,66.3,30.13,North,8,21.0,32.0,96,0.01,,,0.02,Weather View 32 v70,2013-05-12 20:05:00,
2013-05-12 10:09:00,67.3,66.1,30.13,North,3,21.0,32.0,96,0.01,,,0.02,Weather View 32 v70,2013-05-12 20:09:00,
2013-05-12 10:15:00,67.4,66.2,30.13,North,1,19.0,32.0,96,0.01,,,0.02,Weather View 32 v70,2013-05-12 20:15:00,
2013-05-12 10:20:00,67.0,65.8,30.12,North,359,30.0,35.0,96,0.01,,,0.02,Weather View 32 v70,2013-05-12 20:20:00,
2013-05-12 10:30:00,67.0,65.8,30.12,NW,325,22.0,35.0,96,0.01,,,0.02,Weather View 32 v70,2013-05-12 20:30:00,
2013-05-12 10:40:00,67.2,66.0,30.11,NNE,18,26.0,35.0,96,0.00,,,0.02,Weather View 32 v70,2013-05-12 20:40:00,
2013-05-12 10:47:00,67.0,65.8,30.12,North,8,22.0,36.0,96,0.00,,,0.02,Weather View 32 v70,2013-05-12 20:47:00,
2013-05-12 10:52:00,67.2,66.3,30.12,North,357,34.0,36.0,97,0.00,,,0.02,Weather View 32 v70,2013-05-12 20:52:00,
2013-05-12 10:55:00,67.1,66.2,30.13,North,359,30.0,36.0,97,0.00,,,0.02,Weather View 32 v70,2013-05-12 20:55:00,
2013-05-12 10:57:00,67.1,66.2,30.13,NNW,330,25.0,36.0,97,0.00,,,0.02,Weather View 32 v70,2013-05-12 20:57:00,
2013-05-12 11:00:00,67.2,66.3,30.11,North,351,30.0,36.0,97,0.00,,,0.02,Weather View 32 v70,2013-05-12 21:00:00,
2013-05-12 11:02:00,67.0,66.1,30.12,North,355,22.0,38.0,97,0.00,,,0.02,Weather View 32 v70,2013-05-12 21:02:00,
2013-05-12 11:05:00,67.0,65.8,30.13,North,10,18.0,38.0,96,0.00,,,0.02,Weather View 32 v70,2013-05-12 21:05:00,
2013-05-12 11:08:00,66.9,65.7,30.13,NNW,347,27.0,38.0,96,0.00,,,0.02,Weather View 32 v70,2013-05-12 21:08:00,
2013-05-12 11:10:00,66.9,65.7,30.12,North,4,27.0,42.0,96,0.00,,,0.02,Weather View 32 v70,2013-05-12 21:10:00,
2013-05-12 11:15:00,66.9,65.7,30.12,NNW,343,28.0,42.0,96,0.00,,,0.02,Weather View 32 v70,2013-05-12 21:15:00,
2013-05-12 11:17:00,67.0,65.8,30.11,NNW,334,32.0,42.0,96,0.00,,,0.02,Weather View 32 v70,2013-05-12 21:17:00,
2013-05-12 11:20:00,67.0,66.1,30.12,NNE,13,15.0,42.0,97,0.00,,,0.02,Weather View 32 v70,2013-05-12 21:20:00,
2013-05-12 11:22:00,66.9,65.7,30.12,NNW,344,32.0,42.0,96,0.00,,,0.02,Weather View 32 v70,2013-05-12 21:22:00,
2013-05-12 11:28:00,67.1,66.2,30.10,North,350,26.0,42.0,97,0.00,,,0.02,Weather View 32 v70,2013-05-12 21:28:00,
2013-05-12 11:34:00,67.2,66.3,30.12,NNW,347,21.0,42.0,97,0.00,,,0.02,Weather View 32 v70,2013-05-12 21:34:00,
2013-05-12 11:35:00,67.3,66.4,30.12,NNW,339,18.0,42.0,97,0.00,,,0.02,Weather View 32 v70,2013-05-12 21:35:00,
2013-05-12 11:39:00,67.3,66.1,30.12,North,1,23.0,42.0,96,0.01,,,0.03,Weather View 32 v70,2013-05-12 21:39:00,
2013-05-12 11:52:00,67.4,66.2,30.12,North,360,24.0,42.0,96,0.01,,,0.04,Weather View 32 v70,2013-05-12 21:52:00,
2013-05-12 11:57:00,67.4,66.2,30.12,NNW,335,18.0,42.0,96,0.02,,,0.04,Weather View 32 v70,2013-05-12 21:57:00,
2013-05-12 12:00:00,67.5,66.3,30.12,NNW,346,22.0,42.0,96,0.02,,,0.04,Weather View 32 v70,2013-05-12 22:00:00,
2013-05-12 12:02:00,67.6,66.4,30.12,North,1,33.0,42.0,96,0.02,,,0.04,Weather View 32 v70,2013-05-12 22:02:00,
2013-05-12 12:08:00,67.4,66.2,30.12,NNE,14,16.0,42.0,96,0.02,,,0.04,Weather View 32 v70,2013-05-12 22:08:00,
2013-05-12 12:15:00,67.3,66.1,30.10,North,3,26.0,37.0,96,0.02,,,0.04,Weather View 32 v70,2013-05-12 22:15:00,
2013-05-12 12:17:00,67.4,66.2,30.11,NNW,347,24.0,37.0,96,0.02,,,0.04,Weather View 32 v70,2013-05-12 22:17:00,
2013-05-12 12:22:00,67.5,66.3,30.11,North,357,24.0,37.0,96,0.02,,,0.04,Weather View 32 v70,2013-05-12 22:22:00,
2013-05-12 12:27:00,67.5,66.3,30.11,WNW,303,20.0,37.0,96,0.02,,,0.04,Weather View 32 v70,2013-05-12 22:27:00,
2013-05-12 12:32:00,67.6,66.4,30.11,North,355,29.0,39.0,96,0.02,,,0.04,Weather View 32 v70,2013-05-12 22:32:00,
2013-05-12 12:40:00,67.6,66.4,30.11,North,356,19.0,39.0,96,0.01,,,0.04,Weather View 32 v70,2013-05-12 22:40:00,
2013-05-12 12:46:00,67.7,66.5,30.11,NNW,347,17.0,39.0,96,0.01,,,0.04,Weather View 32 v70,2013-05-12 22:46:00,
2013-05-12 12:51:00,67.5,66.3,30.10,North,349,26.0,39.0,96,0.01,,,0.04,Weather View 32 v70,2013-05-12 22:51:00,
2013-05-12 12:58:00,67.5,66.3,30.09,North,359,25.0,39.0,96,0.00,,,0.04,Weather View 32 v70,2013-05-12 22:58:00,
2013-05-12 13:03:00,67.4,66.2,30.11,North,4,17.0,39.0,96,0.00,,,0.04,Weather View 32 v70,2013-05-12 23:03:00,
2013-05-12 13:09:00,67.6,66.4,30.10,NNE,12,25.0,39.0,96,0.00,,,0.04,Weather View 32 v70,2013-05-12 23:09:00,
2013-05-12 13:14:00,67.8,66.9,30.09,North,5,26.0,39.0,97,0.00,,,0.04,Weather View 32 v70,2013-05-12 23:14:00,
2013-05-12 13:19:00,67.5,66.3,30.09,North,350,31.0,39.0,96,0.00,,,0.04,Weather View 32 v70,2013-05-12 23:19:00,
2013-05-12 13:24:00,67.5,66.3,30.09,NNE,18,22.0,39.0,96,0.00,,,0.04,Weather View 32 v70,2013-05-12 23:24:00,
2013-05-12 13:30:00,67.7,66.8,30.08,North,6,27.0,37.0,97,0.00,,,0.04,Weather View 32 v70,2013-05-12 23:30:00,
2013-05-12 13:37:00,67.9,67.0,30.07,North,355,24.0,34.0,97,0.00,,,0.04,Weather View 32 v70,2013-05-12 23:37:00,
2013-05-12 13:42:00,67.7,66.5,30.09,NNW,333,28.0,35.0,96,0.01,,,0.05,Weather View 32 v70,2013-05-12 23:42:00,
2013-05-12 13:48:00,67.7,66.5,30.07,North,351,20.0,35.0,96,0.01,,,0.05,Weather View 32 v70,2013-05-12 23:48:00,
2013-05-12 13:54:00,67.9,66.7,30.08,NNW,348,34.0,35.0,96,0.01,,,0.05,Weather View 32 v70,2013-05-12 23:54:00,
2013-05-12 13:55:00,67.9,66.7,30.08,North,10,24.0,35.0,96,0.01,,,0.05,Weather View 32 v70,2013-05-12 23:55:00,
2013-05-12 13:59:00,68.0,66.8,30.08,North,5,22.0,35.0,96,0.01,,,0.05,Weather View 32 v70,2013-05-12 23:59:00,
2013-05-12 14:00:00,68.0,66.8,30.08,North,4,24.0,35.0,96,0.01,,,0.05,Weather View 32 v70,2013-05-13 00:00:00,
2013-05-12 14:04:00,67.8,66.6,30.08,North,351,23.0,38.0,96,0.01,,,0.05,Weather View 32 v70,2013-05-13 00:04:00,
2013-05-12 14:05:00,67.8,66.6,30.08,NNW,348,28.0,38.0,96,0.01,,,0.05,Weather View 32 v70,2013-05-13 00:05:00,
2013-05-12 14:10:00,67.8,66.9,30.08,NNE,15,20.0,38.0,97,0.01,,,0.05,Weather View 32 v70,2013-05-13 00:10:00,
2013-05-12 14:15:00,67.7,66.8,30.08,NNW,347,22.0,38.0,97,0.01,,,0.05,Weather View 32 v70,2013-05-13 00:15:00,
2013-05-12 14:16:00,67.8,66.9,30.07,North,355,27.0,38.0,97,0.01,,,0.05,Weather View 32 v70,2013-05-13 00:16:00,
2013-05-12 14:20:00,67.7,66.5,30.06,NNW,341,34.0,38.0,96,0.01,,,0.05,Weather View 32 v70,2013-05-13 00:20:00,
2013-05-12 14:21:00,67.7,66.5,30.07,NW,326,19.0,38.0,96,0.01,,,0.05,Weather View 32 v70,2013-05-13 00:21:00,
2013-05-12 14:26:00,68.0,66.8,30.06,North,7,29.0,38.0,96,0.01,,,0.05,Weather View 32 v70,2013-05-13 00:26:00,
2013-05-12 14:32:00,68.6,67.1,30.06,North,349,22.0,38.0,95,0.01,,,0.05,Weather View 32 v70,2013-05-13 00:32:00,
2013-05-12 14:37:00,68.7,67.2,30.06,NNW,342,25.0,38.0,95,0.01,,,0.05,Weather View 32 v70,2013-05-13 00:37:00,
2013-05-12 14:43:00,69.1,67.3,30.04,NNW,343,26.0,39.0,94,0.00,,,0.05,Weather View 32 v70,2013-05-13 00:43:00,
2013-05-12 14:49:00,69.2,67.4,30.05,NNE,16,20.0,40.0,94,0.00,,,0.05,Weather View 32 v70,2013-05-13 00:49:00,
2013-05-12 14:54:00,69.2,67.4,30.06,North,352,30.0,40.0,94,0.00,,,0.05,Weather View 32 v70,2013-05-13 00:54:00,
2013-05-12 15:00:00,69.2,67.4,30.05,North,355,24.0,40.0,94,0.00,,,0.05,Weather View 32 v70,2013-05-13 01:00:00,
2013-05-12 15:05:00,68.7,67.2,30.06,North,1,17.0,40.0,95,0.00,,,0.05,Weather View 32 v70,2013-05-13 01:05:00,
2013-05-12 15:06:00,68.6,67.1,30.06,NNW,343,31.0,40.0,95,0.00,,,0.05,Weather View 32 v70,2013-05-13 01:06:00,
2013-05-12 15:12:00,68.6,67.1,30.07,NE,49,22.0,40.0,95,0.00,,,0.05,Weather View 32 v70,2013-05-13 01:12:00,
2013-05-12 15:17:00,68.6,67.1,30.06,North,6,24.0,40.0,95,0.00,,,0.05,Weather View 32 v70,2013-05-13 01:17:00,
2013-05-12 15:23:00,68.5,67.3,30.06,North,359,24.0,40.0,96,0.00,,,0.05,Weather View 32 v70,2013-05-13 01:23:00,
2013-05-12 15:49:00,68.4,67.2,30.05,NNW,343,15.0,38.0,96,0.01,,,0.06,Weather View 32 v70,2013-05-13 01:49:00,
2013-05-12 15:55:00,68.5,67.3,30.06,NNW,348,30.0,42.0,96,0.01,,,0.06,Weather View 32 v70,2013-05-13 01:55:00,
2013-05-12 16:00:00,68.7,67.5,30.05,North,349,27.0,42.0,96,0.01,,,0.06,Weather View 32 v70,2013-05-13 02:00:00,
2013-05-12 16:05:00,68.7,67.5,30.03,North,356,36.0,42.0,96,0.01,,,0.07,Weather View 32 v70,2013-05-13 02:05:00,
2013-05-12 16:10:00,68.7,67.5,30.05,North,6,22.0,42.0,96,0.02,,,0.07,Weather View 32 v70,2013-05-13 02:10:00,
2013-05-12 16:16:00,68.8,67.3,30.04,North,350,26.0,42.0,95,0.02,,,0.07,Weather View 32 v70,2013-05-13 02:16:00,
2013-05-12 16:21:00,68.9,67.4,30.05,NNW,344,19.0,42.0,95,0.02,,,0.07,Weather View 32 v70,2013-05-13 02:21:00,
2013-05-12 16:28:00,68.8,67.3,30.05,NNE,15,20.0,42.0,95,0.02,,,0.07,Weather View 32 v70,2013-05-13 02:28:00,
2013-05-12 16:33:00,68.8,67.0,30.05,NNW,342,28.0,42.0,94,0.01,,,0.07,Weather View 32 v70,2013-05-13 02:33:00,
2013-05-12 16:38:00,68.9,67.1,30.04,North,357,29.0,42.0,94,0.01,,,0.07,Weather View 32 v70,2013-05-13 02:38:00,
2013-05-12 16:44:00,69.2,67.4,30.03,NNW,345,31.0,42.0,94,0.01,,,0.07,Weather View 32 v70,2013-05-13 02:44:00,
2013-05-12 16:50:00,69.3,67.5,30.04,NNW,347,24.0,42.0,94,0.01,,,0.07,Weather View 32 v70,2013-05-13 02:50:00,
2013-05-12 16:57:00,69.3,67.2,30.05,NW,324,24.0,39.0,93,0.01,,,0.07,Weather View 32 v70,2013-05-13 02:57:00,
2013-05-12 17:00:00,69.3,67.2,30.04,North,353,20.0,39.0,93,0.01,,,0.07,Weather View 32 v70,2013-05-13 03:00:00,
2013-05-12 17:02:00,69.4,67.0,30.04,NNW,341,36.0,44.0,92,0.01,,,0.07,Weather View 32 v70,2013-05-13 03:02:00,
2013-05-12 17:07:00,69.4,67.0,30.01,NE,37,23.0,44.0,92,0.00,,,0.07,Weather View 32 v70,2013-05-13 03:07:00,
2013-05-12 17:12:00,69.6,66.8,30.04,NNW,344,40.0,44.0,91,0.00,,,0.07,Weather View 32 v70,2013-05-13 03:12:00,
2013-05-12 17:17:00,69.2,66.8,30.03,North,351,29.0,44.0,92,0.00,,,0.07,Weather View 32 v70,2013-05-13 03:17:00,
2013-05-12 17:22:00,69.2,66.8,30.05,North,4,31.0,44.0,92,0.00,,,0.07,Weather View 32 v70,2013-05-13 03:22:00,
2013-05-12 17:27:00,69.1,66.7,30.03,North,352,33.0,44.0,92,0.00,,,0.07,Weather View 32 v70,2013-05-13 03:27:00,
2013-05-12 17:32:00,69.4,67.0,30.03,North,351,26.0,44.0,92,0.00,,,0.07,Weather View 32 v70,2013-05-13 03:32:00,
2013-05-12 17:37:00,69.4,67.0,30.04,NNW,334,29.0,44.0,92,0.00,,,0.07,Weather View 32 v70,2013-05-13 03:37:00,
2013-05-12 17:42:00,69.2,66.8,30.05,North,353,22.0,44.0,92,0.00,,,0.07,Weather View 32 v70,2013-05-13 03:42:00,
2013-05-12 17:47:00,69.2,67.1,30.03,North,352,14.0,44.0,93,0.00,,,0.07,Weather View 32 v70,2013-05-13 03:47:00,
2013-05-12 17:52:00,69.0,66.9,30.04,North,358,27.0,44.0,93,0.00,,,0.07,Weather View 32 v70,2013-05-13 03:52:00,
2013-05-12 17:57:00,68.6,66.8,30.04,NW,324,35.0,44.0,94,0.00,,,0.07,Weather View 32 v70,2013-05-13 03:57:00,
2013-05-12 18:01:00,68.6,66.8,30.05,North,356,23.0,44.0,94,0.00,,,0.07,Weather View 32 v70,2013-05-13 04:01:00,
2013-05-12 18:02:00,68.6,66.8,30.05,NNW,348,22.0,42.0,94,0.00,,,0.07,Weather View 32 v70,2013-05-13 04:02:00,
2013-05-12 18:07:00,68.5,66.7,30.05,NNE,12,27.0,40.0,94,0.00,,,0.07,Weather View 32 v70,2013-05-13 04:07:00,
2013-05-12 18:13:00,68.5,66.7,30.04,NNW,334,29.0,40.0,94,0.00,,,0.07,Weather View 32 v70,2013-05-13 04:13:00,
2013-05-12 18:18:00,68.5,66.7,30.04,North,9,21.0,40.0,94,0.00,,,0.07,Weather View 32 v70,2013-05-13 04:18:00,
2013-05-12 18:23:00,68.5,67.0,30.04,NNE,24,24.0,40.0,95,0.15,,,0.07,Weather View 32 v70,2013-05-13 04:23:00,
2013-05-12 18:28:00,68.3,66.8,30.05,North,355,26.0,40.0,95,0.00,,,0.07,Weather View 32 v70,2013-05-13 04:28:00,
2013-05-12 18:33:00,68.3,66.8,30.05,North,8,30.0,37.0,95,0.00,,,0.07,Weather View 32 v70,2013-05-13 04:33:00,
2013-05-12 18:38:00,68.5,67.0,30.05,NNW,348,28.0,37.0,95,0.00,,,0.07,Weather View 32 v70,2013-05-13 04:38:00,
2013-05-12 18:43:00,68.5,67.0,30.05,North,360,24.0,37.0,95,0.00,,,0.07,Weather View 32 v70,2013-05-13 04:43:00,
2013-05-12 18:48:00,68.3,66.8,30.05,North,1,32.0,38.0,95,0.00,,,0.07,Weather View 32 v70,2013-05-13 04:48:00,
2013-05-12 18:53:00,68.3,67.1,30.05,NNE,21,23.0,38.0,96,0.00,,,0.07,Weather View 32 v70,2013-05-13 04:53:00,
2013-05-12 18:58:00,68.3,67.1,30.06,NNW,344,28.0,38.0,96,0.00,,,0.07,Weather View 32 v70,2013-05-13 04:58:00,
2013-05-12 19:03:00,68.4,67.2,30.05,NNE,31,16.0,38.0,96,0.00,,,0.07,Weather View 32 v70,2013-05-13 05:03:00,
2013-05-12 19:08:00,68.6,67.4,30.04,NNE,14,32.0,40.0,96,0.00,,,0.07,Weather View 32 v70,2013-05-13 05:08:00,
2013-05-12 19:13:00,68.7,67.2,30.05,NNW,330,30.0,40.0,95,0.00,,,0.07,Weather View 32 v70,2013-05-13 05:13:00,
2013-05-12 19:18:00,68.8,67.3,30.06,NNE,25,16.0,40.0,95,0.00,,,0.07,Weather View 32 v70,2013-05-13 05:18:00,
2013-05-12 19:23:00,68.9,67.7,30.06,North,1,20.0,40.0,96,0.00,,,0.07,Weather View 32 v70,2013-05-13 05:23:00,
2013-05-12 19:28:00,68.6,67.4,30.06,North,1,25.0,40.0,96,0.00,,,0.07,Weather View 32 v70,2013-05-13 05:28:00,
2013-05-12 19:33:00,68.7,67.5,30.06,North,352,32.0,40.0,96,0.00,,,0.07,Weather View 32 v70,2013-05-13 05:33:00,
2013-05-12 19:38:00,68.7,67.5,30.06,North,355,28.0,40.0,96,0.00,,,0.07,Weather View 32 v70,2013-05-13 05:38:00,
2013-05-12 19:43:00,68.7,67.5,30.07,NE,44,16.0,40.0,96,0.00,,,0.07,Weather View 32 v70,2013-05-13 05:43:00,
2013-05-12 19:48:00,68.7,67.5,30.06,NNW,345,29.0,40.0,96,0.00,,,0.07,Weather View 32 v70,2013-05-13 05:48:00,
2013-05-12 19:53:00,68.9,67.7,30.07,NNE,12,27.0,40.0,96,0.00,,,0.07,Weather View 32 v70,2013-05-13 05:53:00,
2013-05-12 19:58:00,69.0,68.1,30.06,NNW,346,22.0,40.0,97,0.00,,,0.07,Weather View 32 v70,2013-05-13 05:58:00,
2013-05-12 20:03:00,69.0,68.1,30.06,North,8,19.0,40.0,97,0.00,,,0.07,Weather View 32 v70,2013-05-13 06:03:00,
2013-05-12 20:08:00,68.9,67.7,30.07,North,6,26.0,38.0,96,0.00,,,0.07,Weather View 32 v70,2013-05-13 06:08:00,
2013-05-12 20:13:00,68.8,67.9,30.06,NNW,332,22.0,39.0,97,0.00,,,0.07,Weather View 32 v70,2013-05-13 06:13:00,
2013-05-12 20:18:00,68.9,68.0,30.07,NW,312,22.0,39.0,97,0.00,,,0.07,Weather View 32 v70,2013-05-13 06:18:00,
2013-05-12 20:23:00,68.8,67.9,30.07,NNW,330,24.0,39.0,97,0.00,,,0.07,Weather View 32 v70,2013-05-13 06:23:00,
2013-05-12 20:28:00,68.6,67.7,30.04,NNE,12,24.0,39.0,97,0.00,,,0.07,Weather View 32 v70,2013-05-13 06:28:00,
2013-05-12 20:33:00,68.5,67.6,30.05,North,7,20.0,40.0,97,0.00,,,0.07,Weather View 32 v70,2013-05-13 06:33:00,
2013-05-12 20:38:00,68.6,67.7,30.06,NNW,327,38.0,41.0,97,0.00,,,0.07,Weather View 32 v70,2013-05-13 06:38:00,
2013-05-12 20:43:00,68.7,67.8,30.04,NW,317,30.0,43.0,97,0.00,,,0.08,Weather View 32 v70,2013-05-13 06:43:00,
2013-05-12 20:48:00,68.8,67.6,30.06,North,4,31.0,43.0,96,0.01,,,0.08,Weather View 32 v70,2013-05-13 06:48:00,
2013-05-12 20:53:00,68.7,67.5,30.06,NNW,338,28.0,43.0,96,0.01,,,0.08,Weather View 32 v70,2013-05-13 06:53:00,
2013-05-12 20:58:00,68.5,67.3,30.07,NNW,343,12.0,43.0,96,0.01,,,0.08,Weather View 32 v70,2013-05-13 06:58:00,
2013-05-12 21:03:00,68.7,66.9,30.06,NNE,33,24.0,43.0,94,0.01,,,0.08,Weather View 32 v70,2013-05-13 07:03:00,
2013-05-12 21:08:00,69.2,67.1,30.07,NNW,341,28.0,43.0,93,0.01,,,0.08,Weather View 32 v70,2013-05-13 07:08:00,
2013-05-12 21:13:00,69.4,67.0,30.06,North,8,18.0,43.0,92,0.01,,,0.08,Weather View 32 v70,2013-05-13 07:13:00,
2013-05-12 21:18:00,69.5,66.7,30.07,NW,321,20.0,43.0,91,0.01,,,0.08,Weather View 32 v70,2013-05-13 07:18:00,
2013-05-12 21:23:00,69.7,66.9,30.07,NW,316,26.0,43.0,91,0.01,,,0.08,Weather View 32 v70,2013-05-13 07:23:00,
2013-05-12 21:28:00,70.2,66.8,30.05,NNW,343,17.0,43.0,89,0.01,,,0.08,Weather View 32 v70,2013-05-13 07:28:00,
2013-05-12 21:33:00,70.4,67.0,30.05,NNW,333,33.0,43.0,89,0.01,,,0.08,Weather View 32 v70,2013-05-13 07:33:00,
2013-05-12 21:38:00,70.4,66.7,30.07,North,356,35.0,44.0,88,0.01,,,0.08,Weather View 32 v70,2013-05-13 07:38:00,
2013-05-12 21:43:00,70.0,66.6,30.05,NNE,12,26.0,44.0,89,0.01,,,0.08,Weather View 32 v70,2013-05-13 07:43:00,
2013-05-12 21:48:00,69.6,66.8,30.06,NW,312,27.0,44.0,91,0.00,,,0.08,Weather View 32 v70,2013-05-13 07:48:00,
2013-05-12 21:53:00,69.2,67.1,30.08,North,354,19.0,44.0,93,0.00,,,0.08,Weather View 32 v70,2013-05-13 07:53:00,
2013-05-12 21:58:00,69.1,67.0,30.09,NW,326,16.0,44.0,93,0.00,,,0.08,Weather View 32 v70,2013-05-13 07:58:00,
2013-05-12 22:03:00,69.2,67.4,30.06,NE,35,16.0,44.0,94,0.00,,,0.08,Weather View 32 v70,2013-05-13 08:03:00,
2013-05-12 22:08:00,69.1,67.3,30.09,North,5,35.0,44.0,94,0.00,,,0.08,Weather View 32 v70,2013-05-13 08:08:00,
2013-05-12 22:13:00,68.6,67.1,30.07,North,6,35.0,44.0,95,0.00,,,0.08,Weather View 32 v70,2013-05-13 08:13:00,
2013-05-12 22:18:00,68.5,67.0,30.09,North,349,37.0,44.0,95,0.00,,,0.08,Weather View 32 v70,2013-05-13 08:18:00,
2013-05-12 22:23:00,68.4,67.2,30.09,NNE,14,30.0,44.0,96,0.00,,,0.08,Weather View 32 v70,2013-05-13 08:23:00,
2013-05-12 22:28:00,67.9,66.4,30.08,North,359,25.0,44.0,95,0.00,,,0.08,Weather View 32 v70,2013-05-13 08:28:00,
2013-05-12 22:33:00,67.9,66.7,30.09,NW,324,20.0,44.0,96,0.00,,,0.08,Weather View 32 v70,2013-05-13 08:33:00,
2013-05-12 22:38:00,67.9,66.7,30.10,NW,321,15.0,43.0,96,0.00,,,0.08,Weather View 32 v70,2013-05-13 08:38:00,
2013-05-12 22:43:00,68.1,66.9,30.09,North,4,25.0,43.0,96,0.00,,,0.08,Weather View 32 v70,2013-05-13 08:43:00,
2013-05-12 22:48:00,68.1,66.9,30.08,NNE,18,19.0,41.0,96,0.00,,,0.08,Weather View 32 v70,2013-05-13 08:48:00,
2013-05-12 22:53:00,68.1,66.9,30.07,NNW,336,30.0,41.0,96,0.00,,,0.08,Weather View 32 v70,2013-05-13 08:53:00,
2013-05-12 22:58:00,68.0,66.8,30.09,North,6,27.0,42.0,96,0.00,,,0.08,Weather View 32 v70,2013-05-13 08:58:00,
2013-05-12 23:03:00,67.9,66.7,30.09,NNW,338,23.0,42.0,96,0.00,,,0.08,Weather View 32 v70,2013-05-13 09:03:00,
2013-05-12 23:08:00,67.9,66.7,30.09,NNW,345,22.0,42.0,96,0.00,,,0.08,Weather View 32 v70,2013-05-13 09:08:00,
2013-05-12 23:13:00,68.0,66.8,30.08,North,6,22.0,42.0,96,0.00,,,0.08,Weather View 32 v70,2013-05-13 09:13:00,
2013-05-12 23:18:00,68.2,67.0,30.08,North,10,27.0,42.0,96,0.00,,,0.08,Weather View 32 v70,2013-05-13 09:18:00,
2013-05-12 23:23:00,68.4,67.2,30.08,North,360,26.0,42.0,96,0.00,,,0.08,Weather View 32 v70,2013-05-13 09:23:00,
2013-05-12 23:28:00,68.1,66.6,30.06,North,353,33.0,42.0,95,0.00,,,0.08,Weather View 32 v70,2013-05-13 09:28:00,
2013-05-12 23:33:00,67.9,66.4,30.07,NNW,341,22.0,42.0,95,0.00,,,0.08,Weather View 32 v70,2013-05-13 09:33:00,
2013-05-12 23:38:00,67.7,66.2,30.07,NNW,341,21.0,42.0,95,0.00,,,0.08,Weather View 32 v70,2013-05-13 09:38:00,
2013-05-12 23:43:00,68.0,66.5,30.06,NW,323,35.0,42.0,95,0.00,,,0.08,Weather View 32 v70,2013-05-13 09:43:00,
2013-05-12 23:48:00,68.3,66.5,30.07,NW,326,37.0,42.0,94,0.00,,,0.08,Weather View 32 v70,2013-05-13 09:48:00,
2013-05-12 23:53:00,68.5,66.4,30.07,NNW,337,28.0,43.0,93,0.00,,,0.08,Weather View 32 v70,2013-05-13 09:53:00,
2013-05-12 23:58:00,68.6,66.5,30.05,North,350,39.0,45.0,93,0.00,,,0.00,Weather View 32 v70,2013-05-13 09:58:00,